sensor_id;sensor_type;location;lat;lon;timestamp;P1;durP1;ratioP1;P2;durP2;ratioP2
73938;SDS011;62291;47.554;8.504;2022-07-30T00:02:12;5.95;;;5.22;;
73938;SDS011;62291;47.554;8.504;2022-07-30T00:04:38;6.25;;;5.22;;
73938;SDS011;62291;47.554;8.504;2022-07-30T00:07:04;7.18;;;5.50;;
73938;SDS011;62291;47.554;8.504;2022-07-30T00:09:29;4.78;;;4.38;;
73938;SDS011;62291;47.554;8.504;2022-07-30T00:11:55;6.18;;;5.57;;
73938;SDS011;62291;47.554;8.504;2022-07-30T00:14:21;5.85;;;5.15;;
73938;SDS011;62291;47.554;8.504;2022-07-30T00:16:46;5.30;;;4.80;;
73938;SDS011;62291;47.554;8.504;2022-07-30T00:19:12;4.72;;;4.32;;
73938;SDS011;62291;47.554;8.504;2022-07-30T00:21:38;6.22;;;5.63;;
73938;SDS011;62291;47.554;8.504;2022-07-30T00:24:04;5.32;;;4.88;;
73938;SDS011;62291;47.554;8.504;2022-07-30T00:26:30;7.25;;;6.60;;
73938;SDS011;62291;47.554;8.504;2022-07-30T00:28:56;5.93;;;5.43;;
73938;SDS011;62291;47.554;8.504;2022-07-30T00:31:22;5.22;;;4.72;;
73938;SDS011;62291;47.554;8.504;2022-07-30T00:33:47;5.85;;;4.97;;
73938;SDS011;62291;47.554;8.504;2022-07-30T00:36:13;6.30;;;5.70;;
73938;SDS011;62291;47.554;8.504;2022-07-30T00:38:39;7.72;;;6.28;;
73938;SDS011;62291;47.554;8.504;2022-07-30T00:41:05;6.05;;;5.55;;
73938;SDS011;62291;47.554;8.504;2022-07-30T00:43:30;6.65;;;5.63;;
73938;SDS011;62291;47.554;8.504;2022-07-30T00:45:59;8.00;;;5.57;;
73938;SDS011;62291;47.554;8.504;2022-07-30T00:48:24;6.35;;;5.63;;
73938;SDS011;62291;47.554;8.504;2022-07-30T00:50:50;6.70;;;4.82;;
73938;SDS011;62291;47.554;8.504;2022-07-30T00:53:16;5.32;;;4.82;;
73938;SDS011;62291;47.554;8.504;2022-07-30T00:55:42;5.70;;;5.10;;
73938;SDS011;62291;47.554;8.504;2022-07-30T00:58:07;6.55;;;5.60;;
73938;SDS011;62291;47.554;8.504;2022-07-30T01:00:33;6.40;;;5.80;;
73938;SDS011;62291;47.554;8.504;2022-07-30T01:02:59;5.80;;;5.18;;
73938;SDS011;62291;47.554;8.504;2022-07-30T01:05:24;6.13;;;5.53;;
73938;SDS011;62291;47.554;8.504;2022-07-30T01:07:50;7.68;;;5.95;;
73938;SDS011;62291;47.554;8.504;2022-07-30T01:10:16;5.60;;;5.10;;
73938;SDS011;62291;47.554;8.504;2022-07-30T01:12:42;5.60;;;5.10;;
73938;SDS011;62291;47.554;8.504;2022-07-30T01:15:09;5.40;;;4.82;;
73938;SDS011;62291;47.554;8.504;2022-07-30T01:17:36;5.47;;;4.85;;
73938;SDS011;62291;47.554;8.504;2022-07-30T01:20:06;7.40;;;6.28;;
73938;SDS011;62291;47.554;8.504;2022-07-30T01:22:41;6.63;;;5.57;;
73938;SDS011;62291;47.554;8.504;2022-07-30T01:27:46;9.70;;;6.30;;
73938;SDS011;62291;47.554;8.504;2022-07-30T01:30:16;8.80;;;4.45;;
73938;SDS011;62291;47.554;8.504;2022-07-30T01:32:45;6.15;;;4.60;;
73938;SDS011;62291;47.554;8.504;2022-07-30T01:35:11;5.05;;;4.65;;
73938;SDS011;62291;47.554;8.504;2022-07-30T01:37:38;6.65;;;5.00;;
73938;SDS011;62291;47.554;8.504;2022-07-30T01:40:06;6.32;;;5.05;;
73938;SDS011;62291;47.554;8.504;2022-07-30T01:42:33;6.70;;;6.10;;
73938;SDS011;62291;47.554;8.504;2022-07-30T01:45:02;5.10;;;4.70;;
73938;SDS011;62291;47.554;8.504;2022-07-30T01:47:29;5.68;;;5.18;;
73938;SDS011;62291;47.554;8.504;2022-07-30T01:49:58;6.57;;;5.97;;
73938;SDS011;62291;47.554;8.504;2022-07-30T01:52:25;6.30;;;5.78;;
73938;SDS011;62291;47.554;8.504;2022-07-30T01:54:55;7.07;;;6.03;;
73938;SDS011;62291;47.554;8.504;2022-07-30T01:57:22;5.40;;;4.93;;
73938;SDS011;62291;47.554;8.504;2022-07-30T01:59:50;5.28;;;4.25;;
73938;SDS011;62291;47.554;8.504;2022-07-30T02:02:18;6.43;;;5.40;;
73938;SDS011;62291;47.554;8.504;2022-07-30T02:04:44;5.78;;;5.25;;
73938;SDS011;62291;47.554;8.504;2022-07-30T02:09:40;6.28;;;5.50;;
73938;SDS011;62291;47.554;8.504;2022-07-30T02:12:13;7.97;;;5.20;;
73938;SDS011;62291;47.554;8.504;2022-07-30T02:17:38;6.53;;;5.63;;
73938;SDS011;62291;47.554;8.504;2022-07-30T02:20:11;6.70;;;5.70;;
73938;SDS011;62291;47.554;8.504;2022-07-30T02:22:39;5.07;;;4.55;;
73938;SDS011;62291;47.554;8.504;2022-07-30T02:25:07;6.85;;;6.10;;
73938;SDS011;62291;47.554;8.504;2022-07-30T02:27:34;5.35;;;4.70;;
73938;SDS011;62291;47.554;8.504;2022-07-30T02:30:03;6.55;;;4.90;;
73938;SDS011;62291;47.554;8.504;2022-07-30T02:32:32;6.35;;;5.75;;
73938;SDS011;62291;47.554;8.504;2022-07-30T02:35:03;7.03;;;6.32;;
73938;SDS011;62291;47.554;8.504;2022-07-30T02:37:34;7.38;;;6.68;;
73938;SDS011;62291;47.554;8.504;2022-07-30T02:40:02;8.48;;;7.68;;
73938;SDS011;62291;47.554;8.504;2022-07-30T02:42:28;13.48;;;9.55;;
73938;SDS011;62291;47.554;8.504;2022-07-30T02:44:54;8.32;;;7.30;;
73938;SDS011;62291;47.554;8.504;2022-07-30T02:47:23;8.15;;;6.85;;
73938;SDS011;62291;47.554;8.504;2022-07-30T02:49:50;6.70;;;5.55;;
73938;SDS011;62291;47.554;8.504;2022-07-30T02:52:18;6.13;;;5.53;;
73938;SDS011;62291;47.554;8.504;2022-07-30T02:54:44;6.93;;;6.30;;
73938;SDS011;62291;47.554;8.504;2022-07-30T02:57:14;8.15;;;6.93;;
73938;SDS011;62291;47.554;8.504;2022-07-30T02:59:41;8.57;;;7.05;;
73938;SDS011;62291;47.554;8.504;2022-07-30T03:02:09;9.43;;;8.32;;
73938;SDS011;62291;47.554;8.504;2022-07-30T03:04:36;8.70;;;6.25;;
73938;SDS011;62291;47.554;8.504;2022-07-30T03:07:03;7.18;;;6.47;;
73938;SDS011;62291;47.554;8.504;2022-07-30T03:09:30;7.55;;;6.85;;
73938;SDS011;62291;47.554;8.504;2022-07-30T03:11:57;6.03;;;5.32;;
73938;SDS011;62291;47.554;8.504;2022-07-30T03:14:25;6.15;;;5.40;;
73938;SDS011;62291;47.554;8.504;2022-07-30T03:16:52;5.13;;;4.63;;
73938;SDS011;62291;47.554;8.504;2022-07-30T03:19:21;4.35;;;3.97;;
73938;SDS011;62291;47.554;8.504;2022-07-30T03:21:49;6.00;;;5.45;;
73938;SDS011;62291;47.554;8.504;2022-07-30T03:24:16;5.30;;;4.80;;
73938;SDS011;62291;47.554;8.504;2022-07-30T03:26:44;5.60;;;5.10;;
73938;SDS011;62291;47.554;8.504;2022-07-30T03:29:10;5.65;;;4.18;;
73938;SDS011;62291;47.554;8.504;2022-07-30T03:31:38;4.88;;;4.45;;
73938;SDS011;62291;47.554;8.504;2022-07-30T03:34:05;4.82;;;4.43;;
73938;SDS011;62291;47.554;8.504;2022-07-30T03:36:32;5.93;;;4.95;;
73938;SDS011;62291;47.554;8.504;2022-07-30T03:38:59;7.80;;;6.15;;
73938;SDS011;62291;47.554;8.504;2022-07-30T03:41:26;8.70;;;7.80;;
73938;SDS011;62291;47.554;8.504;2022-07-30T03:43:52;8.65;;;7.85;;
73938;SDS011;62291;47.554;8.504;2022-07-30T03:46:19;9.30;;;8.23;;
73938;SDS011;62291;47.554;8.504;2022-07-30T03:48:46;9.15;;;8.15;;
73938;SDS011;62291;47.554;8.504;2022-07-30T03:51:12;8.52;;;7.68;;
73938;SDS011;62291;47.554;8.504;2022-07-30T03:53:39;8.35;;;7.13;;
73938;SDS011;62291;47.554;8.504;2022-07-30T03:56:06;7.22;;;6.30;;
73938;SDS011;62291;47.554;8.504;2022-07-30T03:58:33;8.23;;;7.43;;
73938;SDS011;62291;47.554;8.504;2022-07-30T04:00:58;9.00;;;8.13;;
73938;SDS011;62291;47.554;8.504;2022-07-30T04:03:25;11.32;;;9.00;;
73938;SDS011;62291;47.554;8.504;2022-07-30T04:05:50;11.77;;;9.15;;
73938;SDS011;62291;47.554;8.504;2022-07-30T04:08:16;11.40;;;9.23;;
73938;SDS011;62291;47.554;8.504;2022-07-30T04:10:42;10.15;;;9.05;;
73938;SDS011;62291;47.554;8.504;2022-07-30T04:13:08;10.68;;;9.57;;
73938;SDS011;62291;47.554;8.504;2022-07-30T04:15:36;11.50;;;10.30;;
73938;SDS011;62291;47.554;8.504;2022-07-30T04:18:30;9.45;;;8.48;;
73938;SDS011;62291;47.554;8.504;2022-07-30T04:21:01;9.73;;;8.68;;
73938;SDS011;62291;47.554;8.504;2022-07-30T04:23:29;9.73;;;8.73;;
73938;SDS011;62291;47.554;8.504;2022-07-30T04:25:56;9.63;;;8.60;;
73938;SDS011;62291;47.554;8.504;2022-07-30T04:28:24;9.23;;;8.32;;
73938;SDS011;62291;47.554;8.504;2022-07-30T04:30:51;8.13;;;7.32;;
73938;SDS011;62291;47.554;8.504;2022-07-30T04:33:18;9.48;;;7.82;;
73938;SDS011;62291;47.554;8.504;2022-07-30T04:35:43;8.50;;;7.70;;
73938;SDS011;62291;47.554;8.504;2022-07-30T04:38:09;7.63;;;6.93;;
73938;SDS011;62291;47.554;8.504;2022-07-30T04:40:35;6.53;;;5.93;;
73938;SDS011;62291;47.554;8.504;2022-07-30T04:43:01;5.50;;;4.60;;
73938;SDS011;62291;47.554;8.504;2022-07-30T04:45:26;5.47;;;4.97;;
73938;SDS011;62291;47.554;8.504;2022-07-30T04:47:52;5.50;;;5.00;;
73938;SDS011;62291;47.554;8.504;2022-07-30T04:50:19;5.47;;;5.03;;
73938;SDS011;62291;47.554;8.504;2022-07-30T04:52:47;4.50;;;4.10;;
73938;SDS011;62291;47.554;8.504;2022-07-30T04:55:14;4.85;;;3.80;;
73938;SDS011;62291;47.554;8.504;2022-07-30T04:57:41;3.90;;;3.60;;
73938;SDS011;62291;47.554;8.504;2022-07-30T05:00:07;4.03;;;3.53;;
73938;SDS011;62291;47.554;8.504;2022-07-30T05:02:34;6.13;;;3.92;;
73938;SDS011;62291;47.554;8.504;2022-07-30T05:05:02;4.60;;;4.20;;
73938;SDS011;62291;47.554;8.504;2022-07-30T05:07:29;4.57;;;3.83;;
73938;SDS011;62291;47.554;8.504;2022-07-30T05:09:56;4.20;;;3.85;;
73938;SDS011;62291;47.554;8.504;2022-07-30T05:12:30;5.07;;;4.57;;
73938;SDS011;62291;47.554;8.504;2022-07-30T05:15:06;4.22;;;3.83;;
73938;SDS011;62291;47.554;8.504;2022-07-30T05:17:33;4.43;;;4.03;;
73938;SDS011;62291;47.554;8.504;2022-07-30T05:19:58;4.65;;;4.10;;
73938;SDS011;62291;47.554;8.504;2022-07-30T05:22:24;5.22;;;4.25;;
73938;SDS011;62291;47.554;8.504;2022-07-30T05:24:54;5.85;;;4.35;;
73938;SDS011;62291;47.554;8.504;2022-07-30T05:27:20;5.50;;;5.00;;
73938;SDS011;62291;47.554;8.504;2022-07-30T05:29:46;5.53;;;5.00;;
73938;SDS011;62291;47.554;8.504;2022-07-30T05:32:12;5.63;;;4.47;;
73938;SDS011;62291;47.554;8.504;2022-07-30T05:34:37;5.95;;;5.38;;
73938;SDS011;62291;47.554;8.504;2022-07-30T05:37:03;6.65;;;5.80;;
73938;SDS011;62291;47.554;8.504;2022-07-30T05:39:30;6.25;;;5.50;;
73938;SDS011;62291;47.554;8.504;2022-07-30T05:41:55;6.72;;;5.85;;
73938;SDS011;62291;47.554;8.504;2022-07-30T05:44:21;5.50;;;5.00;;
73938;SDS011;62291;47.554;8.504;2022-07-30T05:46:47;9.38;;;5.90;;
73938;SDS011;62291;47.554;8.504;2022-07-30T05:49:13;7.85;;;5.85;;
73938;SDS011;62291;47.554;8.504;2022-07-30T05:51:39;6.10;;;5.50;;
73938;SDS011;62291;47.554;8.504;2022-07-30T05:54:06;6.38;;;5.72;;
73938;SDS011;62291;47.554;8.504;2022-07-30T05:56:32;5.95;;;5.20;;
73938;SDS011;62291;47.554;8.504;2022-07-30T05:58:57;7.82;;;5.57;;
73938;SDS011;62291;47.554;8.504;2022-07-30T06:01:23;6.07;;;5.53;;
73938;SDS011;62291;47.554;8.504;2022-07-30T06:03:49;5.18;;;4.78;;
73938;SDS011;62291;47.554;8.504;2022-07-30T06:06:14;5.97;;;5.05;;
73938;SDS011;62291;47.554;8.504;2022-07-30T06:08:40;4.82;;;4.43;;
73938;SDS011;62291;47.554;8.504;2022-07-30T06:11:06;5.43;;;4.28;;
73938;SDS011;62291;47.554;8.504;2022-07-30T06:13:34;4.47;;;4.07;;
73938;SDS011;62291;47.554;8.504;2022-07-30T06:16:02;4.45;;;3.70;;
73938;SDS011;62291;47.554;8.504;2022-07-30T06:18:28;3.67;;;3.25;;
73938;SDS011;62291;47.554;8.504;2022-07-30T06:20:53;4.65;;;2.65;;
73938;SDS011;62291;47.554;8.504;2022-07-30T06:23:20;2.70;;;2.50;;
73938;SDS011;62291;47.554;8.504;2022-07-30T06:25:46;5.70;;;2.83;;
73938;SDS011;62291;47.554;8.504;2022-07-30T06:28:13;3.25;;;2.55;;
73938;SDS011;62291;47.554;8.504;2022-07-30T06:30:39;4.00;;;2.83;;
73938;SDS011;62291;47.554;8.504;2022-07-30T06:33:05;4.18;;;2.47;;
73938;SDS011;62291;47.554;8.504;2022-07-30T06:35:31;2.60;;;2.40;;
73938;SDS011;62291;47.554;8.504;2022-07-30T06:37:58;2.90;;;2.60;;
73938;SDS011;62291;47.554;8.504;2022-07-30T06:40:24;2.80;;;2.60;;
73938;SDS011;62291;47.554;8.504;2022-07-30T06:42:50;3.42;;;2.75;;
73938;SDS011;62291;47.554;8.504;2022-07-30T06:45:16;5.35;;;3.08;;
73938;SDS011;62291;47.554;8.504;2022-07-30T06:47:41;5.43;;;2.78;;
73938;SDS011;62291;47.554;8.504;2022-07-30T06:50:07;6.43;;;2.70;;
73938;SDS011;62291;47.554;8.504;2022-07-30T06:52:33;4.43;;;2.78;;
73938;SDS011;62291;47.554;8.504;2022-07-30T06:54:59;4.03;;;2.90;;
73938;SDS011;62291;47.554;8.504;2022-07-30T06:57:25;3.38;;;2.85;;
73938;SDS011;62291;47.554;8.504;2022-07-30T06:59:50;2.85;;;2.60;;
73938;SDS011;62291;47.554;8.504;2022-07-30T07:02:16;7.00;;;2.72;;
73938;SDS011;62291;47.554;8.504;2022-07-30T07:04:43;4.80;;;2.83;;
73938;SDS011;62291;47.554;8.504;2022-07-30T07:07:09;4.70;;;2.72;;
73938;SDS011;62291;47.554;8.504;2022-07-30T07:09:34;4.28;;;2.65;;
73938;SDS011;62291;47.554;8.504;2022-07-30T07:12:00;2.83;;;2.10;;
73938;SDS011;62291;47.554;8.504;2022-07-30T07:14:26;3.08;;;2.20;;
73938;SDS011;62291;47.554;8.504;2022-07-30T07:16:51;3.22;;;1.90;;
73938;SDS011;62291;47.554;8.504;2022-07-30T07:19:17;3.92;;;2.10;;
73938;SDS011;62291;47.554;8.504;2022-07-30T07:21:42;6.95;;;2.30;;
73938;SDS011;62291;47.554;8.504;2022-07-30T07:24:08;2.15;;;1.95;;
73938;SDS011;62291;47.554;8.504;2022-07-30T07:26:34;5.57;;;2.60;;
73938;SDS011;62291;47.554;8.504;2022-07-30T07:29:00;2.78;;;1.90;;
73938;SDS011;62291;47.554;8.504;2022-07-30T07:31:26;5.20;;;1.90;;
73938;SDS011;62291;47.554;8.504;2022-07-30T07:33:52;2.55;;;2.10;;
73938;SDS011;62291;47.554;8.504;2022-07-30T07:36:21;5.30;;;2.10;;
73938;SDS011;62291;47.554;8.504;2022-07-30T07:38:47;6.22;;;1.83;;
73938;SDS011;62291;47.554;8.504;2022-07-30T07:41:13;4.22;;;1.80;;
73938;SDS011;62291;47.554;8.504;2022-07-30T07:43:39;3.30;;;2.00;;
73938;SDS011;62291;47.554;8.504;2022-07-30T07:46:05;9.50;;;2.00;;
73938;SDS011;62291;47.554;8.504;2022-07-30T07:48:31;2.58;;;1.80;;
73938;SDS011;62291;47.554;8.504;2022-07-30T07:50:57;2.20;;;1.80;;
73938;SDS011;62291;47.554;8.504;2022-07-30T07:53:23;4.22;;;1.90;;
73938;SDS011;62291;47.554;8.504;2022-07-30T07:55:49;3.20;;;1.77;;
73938;SDS011;62291;47.554;8.504;2022-07-30T07:58:15;3.60;;;1.75;;
73938;SDS011;62291;47.554;8.504;2022-07-30T08:00:41;6.55;;;1.83;;
73938;SDS011;62291;47.554;8.504;2022-07-30T08:03:06;2.45;;;1.65;;
73938;SDS011;62291;47.554;8.504;2022-07-30T08:05:32;3.78;;;1.60;;
73938;SDS011;62291;47.554;8.504;2022-07-30T08:07:58;3.53;;;1.63;;
73938;SDS011;62291;47.554;8.504;2022-07-30T08:10:24;3.17;;;1.83;;
73938;SDS011;62291;47.554;8.504;2022-07-30T08:12:50;9.43;;;2.13;;
73938;SDS011;62291;47.554;8.504;2022-07-30T08:15:15;4.15;;;1.50;;
73938;SDS011;62291;47.554;8.504;2022-07-30T08:17:44;3.35;;;2.20;;
73938;SDS011;62291;47.554;8.504;2022-07-30T08:20:11;4.00;;;2.05;;
73938;SDS011;62291;47.554;8.504;2022-07-30T08:22:38;4.22;;;2.10;;
73938;SDS011;62291;47.554;8.504;2022-07-30T08:25:05;4.65;;;1.98;;
73938;SDS011;62291;47.554;8.504;2022-07-30T08:27:31;2.78;;;1.83;;
73938;SDS011;62291;47.554;8.504;2022-07-30T08:29:57;3.70;;;2.17;;
73938;SDS011;62291;47.554;8.504;2022-07-30T08:32:26;5.25;;;1.83;;
73938;SDS011;62291;47.554;8.504;2022-07-30T08:34:52;5.50;;;2.22;;
73938;SDS011;62291;47.554;8.504;2022-07-30T08:37:17;5.13;;;1.80;;
73938;SDS011;62291;47.554;8.504;2022-07-30T08:39:43;7.43;;;2.28;;
73938;SDS011;62291;47.554;8.504;2022-07-30T08:42:08;3.75;;;2.22;;
73938;SDS011;62291;47.554;8.504;2022-07-30T08:44:37;6.18;;;2.10;;
73938;SDS011;62291;47.554;8.504;2022-07-30T08:47:05;4.78;;;2.15;;
73938;SDS011;62291;47.554;8.504;2022-07-30T08:49:33;9.32;;;2.60;;
73938;SDS011;62291;47.554;8.504;2022-07-30T08:52:00;8.68;;;2.42;;
73938;SDS011;62291;47.554;8.504;2022-07-30T08:54:26;4.50;;;2.53;;
73938;SDS011;62291;47.554;8.504;2022-07-30T08:56:52;5.90;;;2.65;;
73938;SDS011;62291;47.554;8.504;2022-07-30T08:59:18;5.10;;;2.20;;
73938;SDS011;62291;47.554;8.504;2022-07-30T09:01:47;3.08;;;2.42;;
73938;SDS011;62291;47.554;8.504;2022-07-30T09:04:14;4.80;;;2.60;;
73938;SDS011;62291;47.554;8.504;2022-07-30T09:06:40;3.28;;;1.98;;
73938;SDS011;62291;47.554;8.504;2022-07-30T09:09:05;3.65;;;2.55;;
73938;SDS011;62291;47.554;8.504;2022-07-30T09:11:32;5.97;;;2.25;;
73938;SDS011;62291;47.554;8.504;2022-07-30T09:14:12;4.25;;;1.75;;
73938;SDS011;62291;47.554;8.504;2022-07-30T09:16:39;5.03;;;2.55;;
73938;SDS011;62291;47.554;8.504;2022-07-30T09:19:26;3.55;;;2.65;;
73938;SDS011;62291;47.554;8.504;2022-07-30T09:21:57;5.68;;;2.13;;
73938;SDS011;62291;47.554;8.504;2022-07-30T09:24:24;3.00;;;1.98;;
73938;SDS011;62291;47.554;8.504;2022-07-30T09:26:52;2.60;;;1.80;;
73938;SDS011;62291;47.554;8.504;2022-07-30T09:29:22;3.60;;;2.50;;
73938;SDS011;62291;47.554;8.504;2022-07-30T09:31:53;3.85;;;2.30;;
73938;SDS011;62291;47.554;8.504;2022-07-30T09:34:33;5.87;;;2.27;;
73938;SDS011;62291;47.554;8.504;2022-07-30T09:37:01;5.40;;;2.10;;
73938;SDS011;62291;47.554;8.504;2022-07-30T09:39:29;4.75;;;2.40;;
73938;SDS011;62291;47.554;8.504;2022-07-30T09:44:26;8.02;;;2.42;;
73938;SDS011;62291;47.554;8.504;2022-07-30T09:46:54;3.05;;;1.80;;
73938;SDS011;62291;47.554;8.504;2022-07-30T09:49:22;2.60;;;1.80;;
73938;SDS011;62291;47.554;8.504;2022-07-30T09:51:49;5.93;;;2.13;;
73938;SDS011;62291;47.554;8.504;2022-07-30T09:54:15;3.65;;;1.90;;
73938;SDS011;62291;47.554;8.504;2022-07-30T09:56:41;4.82;;;1.90;;
73938;SDS011;62291;47.554;8.504;2022-07-30T09:59:29;2.47;;;1.60;;
73938;SDS011;62291;47.554;8.504;2022-07-30T10:01:55;4.97;;;2.05;;
73938;SDS011;62291;47.554;8.504;2022-07-30T10:04:22;4.20;;;1.90;;
73938;SDS011;62291;47.554;8.504;2022-07-30T10:06:56;3.90;;;2.08;;
73938;SDS011;62291;47.554;8.504;2022-07-30T10:09:28;6.10;;;2.13;;
73938;SDS011;62291;47.554;8.504;2022-07-30T10:11:56;7.95;;;2.33;;
73938;SDS011;62291;47.554;8.504;2022-07-30T10:14:24;3.22;;;1.98;;
73938;SDS011;62291;47.554;8.504;2022-07-30T10:16:52;4.97;;;2.03;;
73938;SDS011;62291;47.554;8.504;2022-07-30T10:19:18;4.35;;;1.63;;
73938;SDS011;62291;47.554;8.504;2022-07-30T10:21:45;3.45;;;1.75;;
73938;SDS011;62291;47.554;8.504;2022-07-30T10:24:15;3.90;;;2.00;;
73938;SDS011;62291;47.554;8.504;2022-07-30T10:26:42;3.88;;;1.80;;
73938;SDS011;62291;47.554;8.504;2022-07-30T10:29:10;2.90;;;1.73;;
73938;SDS011;62291;47.554;8.504;2022-07-30T10:31:36;4.80;;;1.70;;
73938;SDS011;62291;47.554;8.504;2022-07-30T10:34:03;3.85;;;1.90;;
73938;SDS011;62291;47.554;8.504;2022-07-30T10:36:29;4.80;;;2.00;;
73938;SDS011;62291;47.554;8.504;2022-07-30T10:38:55;4.15;;;1.80;;
73938;SDS011;62291;47.554;8.504;2022-07-30T10:44:15;2.47;;;1.67;;
73938;SDS011;62291;47.554;8.504;2022-07-30T10:49:28;2.60;;;1.88;;
73938;SDS011;62291;47.554;8.504;2022-07-30T10:51:55;4.53;;;1.80;;
73938;SDS011;62291;47.554;8.504;2022-07-30T10:57:03;3.28;;;1.40;;
73938;SDS011;62291;47.554;8.504;2022-07-30T11:02:29;7.15;;;1.70;;
73938;SDS011;62291;47.554;8.504;2022-07-30T11:07:42;3.40;;;1.98;;
73938;SDS011;62291;47.554;8.504;2022-07-30T11:10:32;2.97;;;1.83;;
73938;SDS011;62291;47.554;8.504;2022-07-30T11:13:05;3.92;;;1.73;;
73938;SDS011;62291;47.554;8.504;2022-07-30T11:18:17;3.90;;;1.63;;
73938;SDS011;62291;47.554;8.504;2022-07-30T11:20:43;4.10;;;1.63;;
73938;SDS011;62291;47.554;8.504;2022-07-30T11:23:42;3.00;;;1.85;;
73938;SDS011;62291;47.554;8.504;2022-07-30T11:26:09;3.92;;;1.70;;
73938;SDS011;62291;47.554;8.504;2022-07-30T11:28:37;2.63;;;1.60;;
73938;SDS011;62291;47.554;8.504;2022-07-30T11:34:22;3.75;;;1.58;;
73938;SDS011;62291;47.554;8.504;2022-07-30T11:37:15;4.15;;;1.48;;
73938;SDS011;62291;47.554;8.504;2022-07-30T11:42:43;2.75;;;1.92;;
73938;SDS011;62291;47.554;8.504;2022-07-30T11:47:44;2.90;;;1.83;;
73938;SDS011;62291;47.554;8.504;2022-07-30T11:50:16;3.13;;;1.53;;
73938;SDS011;62291;47.554;8.504;2022-07-30T11:52:53;3.42;;;1.50;;
73938;SDS011;62291;47.554;8.504;2022-07-30T11:57:55;2.90;;;1.60;;
73938;SDS011;62291;47.554;8.504;2022-07-30T12:00:21;3.22;;;1.60;;
73938;SDS011;62291;47.554;8.504;2022-07-30T12:02:48;4.85;;;1.20;;
73938;SDS011;62291;47.554;8.504;2022-07-30T12:05:14;2.05;;;1.40;;
73938;SDS011;62291;47.554;8.504;2022-07-30T12:07:46;3.25;;;1.75;;
73938;SDS011;62291;47.554;8.504;2022-07-30T12:10:13;7.22;;;1.70;;
73938;SDS011;62291;47.554;8.504;2022-07-30T12:12:40;4.15;;;1.38;;
73938;SDS011;62291;47.554;8.504;2022-07-30T12:15:06;3.45;;;1.50;;
73938;SDS011;62291;47.554;8.504;2022-07-30T12:17:42;2.50;;;1.60;;
73938;SDS011;62291;47.554;8.504;2022-07-30T12:20:18;4.07;;;1.52;;
73938;SDS011;62291;47.554;8.504;2022-07-30T12:22:44;3.17;;;1.48;;
73938;SDS011;62291;47.554;8.504;2022-07-30T12:25:10;1.85;;;1.60;;
73938;SDS011;62291;47.554;8.504;2022-07-30T12:27:37;4.47;;;2.15;;
73938;SDS011;62291;47.554;8.504;2022-07-30T12:30:03;4.25;;;1.50;;
73938;SDS011;62291;47.554;8.504;2022-07-30T12:32:29;3.28;;;1.63;;
73938;SDS011;62291;47.554;8.504;2022-07-30T12:34:56;4.10;;;1.73;;
73938;SDS011;62291;47.554;8.504;2022-07-30T12:37:22;2.03;;;1.40;;
73938;SDS011;62291;47.554;8.504;2022-07-30T12:39:49;3.80;;;1.50;;
73938;SDS011;62291;47.554;8.504;2022-07-30T12:42:36;3.30;;;1.48;;
73938;SDS011;62291;47.554;8.504;2022-07-30T12:45:24;3.15;;;1.42;;
73938;SDS011;62291;47.554;8.504;2022-07-30T12:47:54;4.47;;;1.48;;
73938;SDS011;62291;47.554;8.504;2022-07-30T12:50:20;5.15;;;1.30;;
73938;SDS011;62291;47.554;8.504;2022-07-30T12:52:49;1.45;;;1.20;;
73938;SDS011;62291;47.554;8.504;2022-07-30T12:55:16;2.85;;;1.55;;
73938;SDS011;62291;47.554;8.504;2022-07-30T12:57:56;4.57;;;1.42;;
73938;SDS011;62291;47.554;8.504;2022-07-30T13:00:26;2.30;;;1.30;;
73938;SDS011;62291;47.554;8.504;2022-07-30T13:03:18;3.05;;;1.33;;
73938;SDS011;62291;47.554;8.504;2022-07-30T13:05:46;3.33;;;1.40;;
73938;SDS011;62291;47.554;8.504;2022-07-30T13:08:13;3.47;;;1.42;;
73938;SDS011;62291;47.554;8.504;2022-07-30T13:10:55;3.50;;;1.50;;
73938;SDS011;62291;47.554;8.504;2022-07-30T13:13:25;5.25;;;1.23;;
73938;SDS011;62291;47.554;8.504;2022-07-30T13:16:02;2.00;;;1.15;;
73938;SDS011;62291;47.554;8.504;2022-07-30T13:18:29;2.63;;;1.23;;
73938;SDS011;62291;47.554;8.504;2022-07-30T13:20:57;2.05;;;1.00;;
73938;SDS011;62291;47.554;8.504;2022-07-30T13:23:23;1.80;;;1.00;;
73938;SDS011;62291;47.554;8.504;2022-07-30T13:25:49;2.97;;;0.90;;
73938;SDS011;62291;47.554;8.504;2022-07-30T13:28:15;1.15;;;0.80;;
73938;SDS011;62291;47.554;8.504;2022-07-30T13:30:41;1.73;;;1.10;;
73938;SDS011;62291;47.554;8.504;2022-07-30T13:33:08;2.85;;;1.02;;
73938;SDS011;62291;47.554;8.504;2022-07-30T13:35:34;3.70;;;0.95;;
73938;SDS011;62291;47.554;8.504;2022-07-30T13:38:00;1.42;;;0.80;;
73938;SDS011;62291;47.554;8.504;2022-07-30T13:40:26;3.15;;;0.93;;
73938;SDS011;62291;47.554;8.504;2022-07-30T13:42:52;2.72;;;0.80;;
73938;SDS011;62291;47.554;8.504;2022-07-30T13:45:18;1.90;;;1.10;;
73938;SDS011;62291;47.554;8.504;2022-07-30T13:47:43;2.38;;;1.30;;
73938;SDS011;62291;47.554;8.504;2022-07-30T13:50:09;1.25;;;0.95;;
73938;SDS011;62291;47.554;8.504;2022-07-30T13:52:35;1.90;;;1.00;;
73938;SDS011;62291;47.554;8.504;2022-07-30T13:55:00;1.73;;;0.90;;
73938;SDS011;62291;47.554;8.504;2022-07-30T13:57:26;1.88;;;1.02;;
73938;SDS011;62291;47.554;8.504;2022-07-30T13:59:52;1.65;;;0.88;;
73938;SDS011;62291;47.554;8.504;2022-07-30T14:02:17;1.90;;;1.20;;
73938;SDS011;62291;47.554;8.504;2022-07-30T14:04:43;2.25;;;1.00;;
73938;SDS011;62291;47.554;8.504;2022-07-30T14:07:09;2.70;;;1.27;;
73938;SDS011;62291;47.554;8.504;2022-07-30T14:09:34;4.82;;;1.00;;
73938;SDS011;62291;47.554;8.504;2022-07-30T14:12:00;3.30;;;1.00;;
73938;SDS011;62291;47.554;8.504;2022-07-30T14:14:26;1.77;;;1.10;;
73938;SDS011;62291;47.554;8.504;2022-07-30T14:16:51;1.73;;;1.10;;
73938;SDS011;62291;47.554;8.504;2022-07-30T14:19:17;2.22;;;1.20;;
73938;SDS011;62291;47.554;8.504;2022-07-30T14:21:43;5.18;;;1.30;;
73938;SDS011;62291;47.554;8.504;2022-07-30T14:24:09;2.22;;;1.10;;
73938;SDS011;62291;47.554;8.504;2022-07-30T14:26:37;2.75;;;1.20;;
73938;SDS011;62291;47.554;8.504;2022-07-30T14:29:03;3.58;;;1.25;;
73938;SDS011;62291;47.554;8.504;2022-07-30T14:31:29;2.85;;;1.20;;
73938;SDS011;62291;47.554;8.504;2022-07-30T14:33:55;2.88;;;1.20;;
73938;SDS011;62291;47.554;8.504;2022-07-30T14:36:21;2.53;;;1.40;;
73938;SDS011;62291;47.554;8.504;2022-07-30T14:38:47;5.82;;;1.45;;
73938;SDS011;62291;47.554;8.504;2022-07-30T14:41:13;2.65;;;1.15;;
73938;SDS011;62291;47.554;8.504;2022-07-30T14:43:38;2.08;;;1.17;;
73938;SDS011;62291;47.554;8.504;2022-07-30T14:46:04;1.80;;;1.10;;
73938;SDS011;62291;47.554;8.504;2022-07-30T14:48:29;2.58;;;1.15;;
73938;SDS011;62291;47.554;8.504;2022-07-30T14:50:55;3.92;;;1.20;;
73938;SDS011;62291;47.554;8.504;2022-07-30T14:53:21;2.90;;;1.17;;
73938;SDS011;62291;47.554;8.504;2022-07-30T14:55:46;2.95;;;1.10;;
73938;SDS011;62291;47.554;8.504;2022-07-30T14:58:12;3.38;;;1.20;;
73938;SDS011;62291;47.554;8.504;2022-07-30T15:00:38;2.67;;;1.10;;
73938;SDS011;62291;47.554;8.504;2022-07-30T15:03:03;3.40;;;1.35;;
73938;SDS011;62291;47.554;8.504;2022-07-30T15:05:29;7.20;;;1.45;;
73938;SDS011;62291;47.554;8.504;2022-07-30T15:07:54;21.65;;;2.00;;
73938;SDS011;62291;47.554;8.504;2022-07-30T15:10:20;10.93;;;2.17;;
73938;SDS011;62291;47.554;8.504;2022-07-30T15:12:46;5.90;;;1.77;;
73938;SDS011;62291;47.554;8.504;2022-07-30T15:15:11;2.63;;;1.48;;
73938;SDS011;62291;47.554;8.504;2022-07-30T15:17:37;2.88;;;1.58;;
73938;SDS011;62291;47.554;8.504;2022-07-30T15:20:04;6.35;;;1.50;;
73938;SDS011;62291;47.554;8.504;2022-07-30T15:22:32;2.88;;;1.50;;
73938;SDS011;62291;47.554;8.504;2022-07-30T15:24:59;3.88;;;1.60;;
73938;SDS011;62291;47.554;8.504;2022-07-30T15:27:25;2.60;;;1.20;;
73938;SDS011;62291;47.554;8.504;2022-07-30T15:29:50;4.78;;;1.42;;